createdAt,value
2022-09-17T00:00:08.342Z,98768.06
2022-09-17T00:01:40.631Z,98765.53
2022-09-17T00:03:12.696Z,98763.84
2022-09-17T00:04:44.769Z,98763.66
2022-09-17T00:06:17.072Z,98757.44
2022-09-17T00:07:50.518Z,98752.16
2022-09-17T00:09:22.490Z,98749.53
2022-09-17T00:10:54.537Z,98749.69
2022-09-17T00:12:26.520Z,98746.09
2022-09-17T00:14:00.637Z,98747.66
2022-09-17T00:15:33.070Z,98759.13
2022-09-17T00:17:05.137Z,98762.56
2022-09-17T00:18:40.968Z,98764.38
2022-09-17T00:20:13.028Z,98772.47
2022-09-17T00:21:45.303Z,98769.00
2022-09-17T00:23:17.259Z,98761.47
2022-09-17T00:24:49.228Z,98766.63
2022-09-17T00:26:21.380Z,98761.38
2022-09-17T00:27:53.427Z,98756.31
2022-09-17T00:29:25.412Z,98757.38
2022-09-17T00:30:57.608Z,98757.38
2022-09-17T00:32:30.020Z,98765.16
2022-09-17T00:34:02.869Z,98762.19
2022-09-17T00:35:34.973Z,98756.94
2022-09-17T00:37:06.945Z,98741.19
2022-09-17T00:38:39.216Z,98741.19
2022-09-17T00:40:11.281Z,98747.25
2022-09-17T00:41:44.194Z,98737.72
2022-09-17T00:43:33.614Z,98743.81
2022-09-17T00:45:06.184Z,98738.03
2022-09-17T00:46:44.011Z,98737.09
2022-09-17T00:48:16.030Z,98745.19
2022-09-17T00:49:49.938Z,98738.03
2022-09-17T00:51:28.945Z,98740.56
2022-09-17T00:53:11.676Z,98744.25
2022-09-17T00:54:48.812Z,98751.41
2022-09-17T00:56:29.542Z,98747.97
2022-09-17T00:58:03.543Z,98740.19
2022-09-17T00:59:35.717Z,98739.81
2022-09-17T01:01:08.077Z,98740.72
2022-09-17T01:02:40.746Z,98735.47
2022-09-17T01:04:20.536Z,98726.66
2022-09-17T01:06:12.680Z,98718.91
2022-09-17T01:07:50.681Z,98717.97
2022-09-17T01:09:41.184Z,98716.88
2022-09-17T01:11:21.841Z,98720.25
2022-09-17T01:13:07.785Z,98728.84
2022-09-17T01:15:17.297Z,98720.72
2022-09-17T01:17:13.916Z,98718.09
2022-09-17T01:18:51.388Z,98709.75
2022-09-17T01:20:30.872Z,98716.66
2022-09-17T01:22:08.098Z,98736.94
2022-09-17T01:24:11.899Z,98724.44
2022-09-17T01:26:10.895Z,98729.44
2022-09-17T01:27:45.968Z,98727.06
2022-09-17T01:29:55.637Z,98727.53
2022-09-17T01:31:34.191Z,98731.97
2022-09-17T01:33:06.385Z,98736.59
2022-09-17T01:35:03.757Z,98722.53
2022-09-17T01:36:47.849Z,98731.56
2022-09-17T01:38:38.114Z,98737.03
2022-09-17T01:40:14.380Z,98728.72
2022-09-17T01:42:00.609Z,98721.28
2022-09-17T01:43:42.099Z,98731.47
2022-09-17T01:45:22.979Z,98722.72
2022-09-17T01:47:04.418Z,98721.78
2022-09-17T01:48:40.492Z,98705.31
2022-09-17T01:50:21.408Z,98704.69
2022-09-17T01:51:55.130Z,98711.97
2022-09-17T01:53:52.085Z,98703.03
2022-09-17T01:55:27.261Z,98700.75
2022-09-17T01:57:05.781Z,98709.56
2022-09-17T01:58:43.292Z,98729.75
2022-09-17T02:00:17.673Z,98732.38
2022-09-17T02:01:53.779Z,98738.97
2022-09-17T02:03:30.905Z,98739.81
2022-09-17T02:05:09.535Z,98730.84
2022-09-17T02:06:45.786Z,98715.09
2022-09-17T02:08:21.995Z,98722.00
2022-09-17T02:10:07.226Z,98712.56
2022-09-17T02:11:40.537Z,98715.09
2022-09-17T02:13:20.591Z,98710.47
2022-09-17T02:14:54.612Z,98704.47
2022-09-17T02:16:27.665Z,98688.09
2022-09-17T02:18:03.910Z,98686.44
2022-09-17T02:19:38.827Z,98692.75
2022-09-17T02:21:15.966Z,98683.41
2022-09-17T02:22:57.690Z,98677.22
2022-09-17T02:25:06.714Z,98664.72
2022-09-17T02:26:43.666Z,98658.75
2022-09-17T02:28:26.014Z,98643.19
2022-09-17T02:29:58.137Z,98643.44
2022-09-17T02:31:30.106Z,98644.28
2022-09-17T02:33:03.862Z,98643.00
2022-09-17T02:34:36.263Z,98646.56
2022-09-17T02:36:08.638Z,98650.53
2022-09-17T02:37:42.305Z,98650.38
2022-09-17T02:39:14.325Z,98649.78
2022-09-17T02:40:49.920Z,98645.38
2022-09-17T02:42:24.817Z,98642.13
2022-09-17T02:44:11.812Z,98638.56
2022-09-17T02:46:07.823Z,98637.84
2022-09-17T02:48:05.826Z,98639.41
2022-09-17T02:50:05.199Z,98648.25
2022-09-17T02:52:00.330Z,98640.38
2022-09-17T02:54:01.511Z,98639.41
2022-09-17T02:55:42.211Z,98623.66
2022-09-17T02:57:38.732Z,98621.03
2022-09-17T02:59:25.282Z,98591.75
2022-09-17T03:01:04.166Z,98601.44
2022-09-17T03:02:45.922Z,98610.25
2022-09-17T03:04:19.262Z,98619.09
2022-09-17T03:05:51.614Z,98622.44
2022-09-17T03:07:24.182Z,98622.53
2022-09-17T03:08:57.561Z,98619.91
2022-09-17T03:10:33.729Z,98604.66
2022-09-17T03:12:06.063Z,98604.28
2022-09-17T03:13:38.061Z,98600.81
2022-09-17T03:15:10.885Z,98604.38
2022-09-17T03:16:42.982Z,98594.13
2022-09-17T03:18:15.194Z,98598.66
2022-09-17T03:19:47.257Z,98594.47
2022-09-17T03:23:02.221Z,98564.78
2022-09-17T03:24:34.192Z,98575.44
2022-09-17T03:26:06.389Z,98565.88
2022-09-17T03:27:38.431Z,98559.91
2022-09-17T03:29:10.404Z,98559.09
2022-09-17T03:30:47.020Z,98572.00
2022-09-17T03:32:19.033Z,98567.78
2022-09-17T03:33:51.130Z,98557.66
2022-09-17T03:35:23.108Z,98560.06
2022-09-17T03:36:55.334Z,98554.91
2022-09-17T03:38:27.313Z,98546.31
2022-09-17T03:39:59.386Z,98540.25
2022-09-17T03:41:31.556Z,98544.75
2022-09-17T03:43:03.532Z,98540.34
2022-09-17T03:44:35.547Z,98533.31
2022-09-17T03:46:08.015Z,98523.06
2022-09-17T03:47:40.049Z,98527.34
2022-09-17T03:49:12.017Z,98528.06
2022-09-17T03:50:44.081Z,98524.50
2022-09-17T03:52:16.102Z,98518.41
2022-09-17T03:53:48.207Z,98531.41
2022-09-17T03:55:20.411Z,98530.31
2022-09-17T03:56:52.493Z,98539.78
2022-09-17T03:58:24.559Z,98534.53
2022-09-17T03:59:56.646Z,98529.16
2022-09-17T04:01:29.642Z,98532.63
2022-09-17T04:03:02.090Z,98536.44
2022-09-17T04:04:34.400Z,98531.28
2022-09-17T04:06:06.732Z,98527.13
2022-09-17T04:07:41.349Z,98530.69
2022-09-17T04:09:13.381Z,98535.44
2022-09-17T04:10:46.521Z,98530.31
2022-09-17T04:12:18.615Z,98533.03
2022-09-17T04:13:50.639Z,98525.31
2022-09-17T04:15:22.664Z,98534.72
2022-09-17T04:16:54.697Z,98535.56
2022-09-17T04:18:26.772Z,98539.97
2022-09-17T04:19:59.039Z,98544.25
2022-09-17T04:21:31.272Z,98539.88
2022-09-17T04:23:03.415Z,98548.22
2022-09-17T04:24:35.486Z,98532.56
2022-09-17T04:26:07.483Z,98537.00
2022-09-17T04:27:42.231Z,98532.47
2022-09-17T04:29:14.298Z,98531.84
2022-09-17T04:30:46.335Z,98529.47
2022-09-17T04:32:18.413Z,98536.53
2022-09-17T04:33:50.488Z,98535.66
2022-09-17T04:35:22.617Z,98532.22
2022-09-17T04:38:27.391Z,98539.72
2022-09-17T04:39:59.453Z,98537.72
2022-09-17T04:41:31.514Z,98527.13
2022-09-17T04:43:04.446Z,98538.34
2022-09-17T04:44:36.447Z,98526.03
2022-09-17T04:46:08.483Z,98532.00
2022-09-17T04:47:40.890Z,98533.56
2022-09-17T04:49:13.413Z,98548.47
2022-09-17T04:50:45.403Z,98547.66
2022-09-17T04:52:17.823Z,98546.78
2022-09-17T04:53:50.071Z,98561.38
2022-09-17T04:55:22.406Z,98557.19
2022-09-17T04:56:54.691Z,98561.59
2022-09-17T04:58:26.776Z,98570.31
2022-09-17T05:00:02.310Z,98570.31
2022-09-17T05:01:34.652Z,98563.50
2022-09-17T05:03:06.665Z,98570.22
2022-09-17T05:04:38.930Z,98578.91
2022-09-17T05:06:11.469Z,98583.31
2022-09-17T05:07:43.965Z,98590.47
2022-09-17T05:09:16.509Z,98590.38
2022-09-17T05:12:21.775Z,98595.41
2022-09-17T05:13:54.078Z,98590.16
2022-09-17T05:15:28.144Z,98599.59
2022-09-17T05:17:00.385Z,98590.88
2022-09-17T05:18:32.612Z,98584.81
2022-09-17T05:20:05.335Z,98581.34
2022-09-17T05:21:37.689Z,98589.94
2022-09-17T05:23:10.101Z,98595.06
2022-09-17T05:24:42.369Z,98593.88
2022-09-17T05:26:15.130Z,98614.88
2022-09-17T05:27:47.369Z,98597.38
2022-09-17T05:29:19.933Z,98601.66
2022-09-17T05:30:52.208Z,98606.78
2022-09-17T05:32:24.771Z,98619.91
2022-09-17T05:33:58.729Z,98617.78
2022-09-17T05:35:31.697Z,98628.28
2022-09-17T05:37:03.930Z,98613.59
2022-09-17T05:38:38.736Z,98638.78
2022-09-17T05:40:11.073Z,98621.56
2022-09-17T05:41:43.624Z,98610.25
2022-09-17T05:43:16.334Z,98619.69
2022-09-17T05:44:48.502Z,98625.09
2022-09-17T05:46:22.394Z,98630.88
2022-09-17T05:47:58.946Z,98633.56
2022-09-17T05:49:31.249Z,98626.19
2022-09-17T05:51:03.747Z,98625.63
2022-09-17T05:52:36.194Z,98625.09
2022-09-17T05:54:09.297Z,98629.06
2022-09-17T05:55:41.523Z,98638.06
2022-09-17T05:57:13.852Z,98635.97
2022-09-17T05:58:48.500Z,98630.09
2022-09-17T06:00:21.013Z,98635.19
2022-09-17T06:01:53.357Z,98616.38
2022-09-17T06:03:25.866Z,98611.97
2022-09-17T06:05:01.484Z,98611.88
2022-09-17T06:06:33.690Z,98612.19
2022-09-17T06:08:06.341Z,98623.75
2022-09-17T06:09:39.306Z,98617.06
2022-09-17T06:11:11.557Z,98615.13
2022-09-17T06:12:43.691Z,98615.72
2022-09-17T06:14:16.895Z,98615.44
2022-09-17T06:15:52.755Z,98612.00
2022-09-17T06:17:25.149Z,98618.97
2022-09-17T06:18:57.591Z,98611.47
2022-09-17T06:20:29.892Z,98611.88
2022-09-17T06:22:02.397Z,98617.84
2022-09-17T06:23:38.092Z,98622.19
2022-09-17T06:25:10.408Z,98647.59
2022-09-17T06:26:42.890Z,98639.41
2022-09-17T06:28:15.327Z,98646.34
2022-09-17T06:29:47.805Z,98640.69
2022-09-17T06:31:20.171Z,98634.41
2022-09-17T06:32:52.487Z,98647.19
2022-09-17T06:34:24.803Z,98645.25
2022-09-17T06:36:00.576Z,98657.22
2022-09-17T06:37:33.876Z,98662.09
2022-09-17T06:39:06.011Z,98664.34
2022-09-17T06:40:38.353Z,98667.38
2022-09-17T06:42:10.669Z,98671.69
2022-09-17T06:43:43.421Z,98691.00
2022-09-17T06:45:16.929Z,98688.38
2022-09-17T06:46:51.553Z,98689.88
2022-09-17T06:48:24.326Z,98679.59
2022-09-17T06:51:29.556Z,98658.19
2022-09-17T06:53:02.132Z,98652.53
2022-09-17T06:54:34.431Z,98645.69
2022-09-17T06:56:08.813Z,98643.50
2022-09-17T06:57:41.400Z,98635.97
2022-09-17T06:59:14.255Z,98631.06
2022-09-17T07:00:46.677Z,98622.78
2022-09-17T07:02:19.185Z,98636.41
2022-09-17T07:03:51.806Z,98643.19
2022-09-17T07:05:25.187Z,98642.63
2022-09-17T07:06:57.737Z,98645.00
2022-09-17T07:08:32.255Z,98648.06
2022-09-17T07:10:04.812Z,98641.94
2022-09-17T07:11:36.855Z,98634.16
2022-09-17T07:13:09.155Z,98640.28
2022-09-17T07:14:41.463Z,98645.72
2022-09-17T07:16:13.995Z,98648.50
2022-09-17T07:17:47.350Z,98650.31
2022-09-17T07:19:19.589Z,98641.53
2022-09-17T07:20:56.049Z,98634.00
2022-09-17T07:22:28.520Z,98637.53
2022-09-17T07:24:00.847Z,98642.81
2022-09-17T07:25:33.173Z,98652.91
2022-09-17T07:27:05.685Z,98647.09
2022-09-17T07:28:41.036Z,98652.09
2022-09-17T07:30:14.043Z,98657.50
2022-09-17T07:31:46.435Z,98668.06
2022-09-17T07:33:25.076Z,98669.75
2022-09-17T07:34:57.631Z,98668.38
2022-09-17T07:36:30.220Z,98665.72
2022-09-17T07:38:02.729Z,98663.09
2022-09-17T07:39:38.286Z,98667.13
2022-09-17T07:41:16.018Z,98672.13
2022-09-17T07:42:48.315Z,98662.56
2022-09-17T07:44:22.506Z,98662.56
2022-09-17T07:45:55.466Z,98641.13
2022-09-17T07:47:27.906Z,98633.19
2022-09-17T07:49:00.543Z,98631.25
2022-09-17T07:50:33.957Z,98621.38
2022-09-17T07:52:06.854Z,98617.75
2022-09-17T07:53:39.115Z,98616.63
2022-09-17T07:55:11.451Z,98616.63
2022-09-17T07:56:43.977Z,98618.31
2022-09-17T07:58:16.194Z,98627.47
2022-09-17T07:59:48.426Z,98617.59
2022-09-17T08:01:23.818Z,98622.06
2022-09-17T08:02:56.738Z,98635.84
2022-09-17T08:04:29.178Z,98642.50
2022-09-17T08:06:05.808Z,98656.25
2022-09-17T08:07:38.074Z,98671.16
2022-09-17T08:09:12.178Z,98670.75
2022-09-17T08:10:44.635Z,98665.47
2022-09-17T08:12:18.727Z,98682.03
2022-09-17T08:13:52.218Z,98675.75
2022-09-17T08:15:25.575Z,98671.44
2022-09-17T08:16:58.210Z,98656.69
2022-09-17T08:18:30.619Z,98644.44
2022-09-17T08:20:03.492Z,98652.09
2022-09-17T08:21:36.324Z,98645.97
2022-09-17T08:23:08.728Z,98654.72
2022-09-17T08:24:42.967Z,98640.81
2022-09-17T08:26:17.895Z,98638.88
2022-09-17T08:27:54.524Z,98629.16
2022-09-17T08:29:26.833Z,98612.59
2022-09-17T08:31:08.693Z,98604.50
2022-09-17T08:32:41.079Z,98606.63
2022-09-17T08:34:13.668Z,98598.13
2022-09-17T08:35:55.909Z,98603.81
2022-09-17T08:37:31.232Z,98606.63
2022-09-17T08:39:04.159Z,98605.75
2022-09-17T08:40:44.571Z,98612.44
2022-09-17T08:42:25.334Z,98609.94
2022-09-17T08:44:24.855Z,98611.84
2022-09-17T08:45:58.443Z,98597.69
2022-09-17T08:47:43.533Z,98592.09
2022-09-17T08:50:06.545Z,98589.88
2022-09-17T08:51:57.205Z,98585.53
2022-09-17T08:55:19.259Z,98588.50
2022-09-17T08:57:05.433Z,98580.56
2022-09-17T08:59:18.491Z,98581.25
2022-09-17T09:01:08.603Z,98577.06
2022-09-17T09:02:56.608Z,98582.34
2022-09-17T09:05:07.329Z,98598.19
2022-09-17T09:07:05.809Z,98609.91
2022-09-17T09:08:39.891Z,98607.84
2022-09-17T09:10:25.361Z,98602.72
2022-09-17T09:12:26.244Z,98593.94
2022-09-17T09:14:05.970Z,98585.31
2022-09-17T09:15:45.865Z,98586.44
2022-09-17T09:17:19.394Z,98597.84
2022-09-17T09:18:55.030Z,98606.06
2022-09-17T09:20:37.601Z,98601.72
2022-09-17T09:22:12.623Z,98601.59
2022-09-17T09:23:59.484Z,98602.72
2022-09-17T09:25:40.171Z,98608.72
2022-09-17T09:27:16.946Z,98609.16
2022-09-17T09:29:30.227Z,98610.09
2022-09-17T09:31:40.685Z,98606.94
2022-09-17T09:33:18.941Z,98614.13
2022-09-17T09:34:51.508Z,98606.78
2022-09-17T09:36:23.814Z,98617.47
2022-09-17T09:38:07.108Z,98631.38
2022-09-17T09:39:45.180Z,98631.09
2022-09-17T09:41:46.882Z,98638.06
2022-09-17T09:44:02.236Z,98638.63
2022-09-17T09:45:38.771Z,98639.72
2022-09-17T09:47:39.633Z,98645.84
2022-09-17T09:49:55.849Z,98658.34
2022-09-17T09:51:38.894Z,98664.72
2022-09-17T09:53:23.568Z,98658.88
2022-09-17T09:55:14.778Z,98684.47
2022-09-17T09:56:52.963Z,98701.56
2022-09-17T09:58:41.701Z,98711.56
2022-09-17T10:00:35.685Z,98717.09
2022-09-17T10:02:08.869Z,98731.41
2022-09-17T10:03:42.567Z,98738.09
2022-09-17T10:05:14.988Z,98730.84
2022-09-17T10:06:50.907Z,98735.41
2022-09-17T10:08:23.329Z,98747.38
2022-09-17T10:10:09.656Z,98747.50
2022-09-17T10:11:42.871Z,98761.34
2022-09-17T10:13:15.586Z,98774.53
2022-09-17T10:14:48.281Z,98780.47
2022-09-17T10:16:25.808Z,98776.16
2022-09-17T10:18:17.608Z,98785.88
2022-09-17T10:20:09.538Z,98793.09
2022-09-17T10:21:43.513Z,98803.34
2022-09-17T10:23:15.801Z,98799.53
2022-09-17T10:24:48.401Z,98796.84
2022-09-17T10:26:23.679Z,98803.09
2022-09-17T10:27:57.943Z,98798.19
2022-09-17T10:29:30.487Z,98813.44
2022-09-17T10:31:10.725Z,98806.34
2022-09-17T10:32:46.499Z,98809.66
2022-09-17T10:34:23.556Z,98820.19
2022-09-17T10:36:00.353Z,98813.50
2022-09-17T10:37:48.769Z,98819.63
2022-09-17T10:39:35.433Z,98819.72
2022-09-17T10:41:19.642Z,98817.09
2022-09-17T10:43:11.784Z,98825.84
2022-09-17T10:44:57.983Z,98819.16
2022-09-17T10:46:31.916Z,98817.38
2022-09-17T10:48:04.365Z,98815.78
2022-09-17T10:50:08.723Z,98807.66
2022-09-17T10:55:15.202Z,98774.59
2022-09-17T10:56:55.220Z,98748.50
2022-09-17T10:58:42.447Z,98716.25
2022-09-17T11:00:19.774Z,98726.75
2022-09-17T11:02:01.621Z,98744.75
2022-09-17T11:03:55.417Z,98748.09
2022-09-17T11:05:35.120Z,98756.25
2022-09-17T11:07:36.945Z,98777.91
2022-09-17T11:09:26.567Z,98784.28
2022-09-17T11:11:13.106Z,98806.31
2022-09-17T11:13:16.930Z,98794.84
2022-09-17T11:14:56.497Z,98792.31
2022-09-17T11:16:51.778Z,98785.94
2022-09-17T11:18:37.362Z,98776.59
2022-09-17T11:20:20.916Z,98748.69
2022-09-17T11:22:21.806Z,98711.69
2022-09-17T11:24:20.002Z,98716.59
2022-09-17T11:26:00.807Z,98734.91
2022-09-17T11:28:02.293Z,98749.50
2022-09-17T11:29:35.855Z,98756.22
2022-09-17T11:31:29.000Z,98750.03
2022-09-17T11:33:17.430Z,98745.78
2022-09-17T11:35:12.318Z,98747.50
2022-09-17T11:36:52.559Z,98742.81
2022-09-17T11:38:25.861Z,98732.97
2022-09-17T11:39:59.884Z,98724.25
2022-09-17T11:41:38.828Z,98722.06
2022-09-17T11:43:29.568Z,98717.91
2022-09-17T11:45:11.333Z,98707.22
2022-09-17T11:46:50.772Z,98713.09
2022-09-17T11:48:27.445Z,98701.56
2022-09-17T11:50:05.005Z,98703.94
2022-09-17T11:51:58.015Z,98689.75
2022-09-17T11:54:04.364Z,98684.81
2022-09-17T11:55:45.566Z,98682.88
2022-09-17T11:57:20.845Z,98681.75
2022-09-17T11:59:13.579Z,98675.22
2022-09-17T12:00:55.748Z,98672.59
2022-09-17T12:02:45.296Z,98678.31
2022-09-17T12:04:31.005Z,98678.91
2022-09-17T12:06:08.615Z,98682.22
2022-09-17T12:07:46.776Z,98672.50
2022-09-17T12:09:26.464Z,98670.28
2022-09-17T12:11:28.536Z,98674.06
2022-09-17T12:13:07.782Z,98671.94
2022-09-17T12:14:59.404Z,98660.84
2022-09-17T12:16:45.599Z,98668.50
2022-09-17T12:18:43.580Z,98675.19
2022-09-17T12:20:29.543Z,98672.25
2022-09-17T12:22:18.097Z,98667.41
2022-09-17T12:24:23.435Z,98671.13
2022-09-17T12:26:32.717Z,98670.72
2022-09-17T12:28:16.299Z,98667.41
2022-09-17T12:30:00.795Z,98673.13
2022-09-17T12:32:02.414Z,98676.47
2022-09-17T12:34:28.471Z,98673.81
2022-09-17T12:36:30.858Z,98672.81
2022-09-17T12:38:08.686Z,98663.94
2022-09-17T12:39:53.565Z,98649.75
2022-09-17T12:41:47.398Z,98669.78
2022-09-17T12:43:34.558Z,98658.38
2022-09-17T12:45:32.778Z,98658.78
2022-09-17T12:47:42.195Z,98660.59
2022-09-17T12:49:20.521Z,98658.94
2022-09-17T12:51:20.001Z,98649.03
2022-09-17T12:53:13.088Z,98643.94
2022-09-17T12:55:11.574Z,98643.34
2022-09-17T12:57:03.908Z,98639.00
2022-09-17T12:58:58.339Z,98632.91
2022-09-17T13:00:37.518Z,98625.13
2022-09-17T13:02:26.908Z,98609.53
2022-09-17T13:04:38.130Z,98596.91
2022-09-17T13:06:33.405Z,98589.09
2022-09-17T13:08:21.548Z,98585.75
2022-09-17T13:10:30.770Z,98572.44
2022-09-17T13:12:09.073Z,98566.06
2022-09-17T13:14:25.803Z,98558.53
2022-09-17T13:16:01.776Z,98549.66
2022-09-17T13:18:06.108Z,98551.28
2022-09-17T13:19:57.922Z,98541.72
2022-09-17T13:21:43.871Z,98535.06
2022-09-17T13:23:16.319Z,98528.91
2022-09-17T13:25:03.207Z,98513.63
2022-09-17T13:26:40.097Z,98513.63
2022-09-17T13:28:13.131Z,98507.66
2022-09-17T13:29:45.297Z,98512.94
2022-09-17T13:31:44.939Z,98510.72
2022-09-17T13:33:50.779Z,98509.84
2022-09-17T13:35:23.047Z,98521.97
2022-09-17T13:36:56.304Z,98514.06
2022-09-17T13:38:28.326Z,98521.53
2022-09-17T13:40:01.655Z,98520.03
2022-09-17T13:41:37.206Z,98519.91
2022-09-17T13:43:13.656Z,98513.91
2022-09-17T13:45:09.974Z,98517.53
2022-09-17T13:46:45.125Z,98505.56
2022-09-17T13:48:22.129Z,98495.69
2022-09-17T13:49:59.021Z,98502.66
2022-09-17T13:51:31.311Z,98491.53
2022-09-17T13:53:07.838Z,98484.44
2022-09-17T13:54:40.625Z,98482.09
2022-09-17T13:56:51.247Z,98472.22
2022-09-17T13:58:31.727Z,98472.50
2022-09-17T14:00:04.496Z,98472.38
2022-09-17T14:02:31.916Z,98471.94
2022-09-17T14:04:05.500Z,98463.75
2022-09-17T14:05:37.986Z,98469.59
2022-09-17T14:07:22.035Z,98470.03
2022-09-17T14:08:58.327Z,98462.97
2022-09-17T14:10:50.726Z,98475.19
2022-09-17T14:12:41.688Z,98474.34
2022-09-17T14:14:13.930Z,98468.66
2022-09-17T14:15:46.539Z,98466.88
2022-09-17T14:17:52.400Z,98472.69
2022-09-17T14:19:56.903Z,98464.91
2022-09-17T14:52:25.571Z,98401.31
2022-09-17T14:54:15.095Z,98395.47
2022-09-17T14:55:49.725Z,98382.72
2022-09-17T14:57:28.052Z,98375.63
2022-09-17T14:59:00.547Z,98374.34
2022-09-17T15:00:38.577Z,98373.38
2022-09-17T15:02:27.698Z,98391.00
2022-09-17T15:04:15.426Z,98396.13
2022-09-17T15:05:51.106Z,98389.22
2022-09-17T15:07:24.055Z,98390.16
2022-09-17T15:08:58.271Z,98378.66
2022-09-17T15:10:31.390Z,98365.59
2022-09-17T15:12:04.485Z,98364.78
2022-09-17T15:13:51.949Z,98348.25
2022-09-17T15:15:25.804Z,98344.75
2022-09-17T15:17:00.573Z,98349.34
2022-09-17T15:18:36.976Z,98365.16
2022-09-17T15:20:15.965Z,98372.38
2022-09-17T15:21:49.977Z,98374.34
2022-09-17T15:23:26.387Z,98374.19
2022-09-17T15:25:01.075Z,98351.72
2022-09-17T15:26:36.895Z,98346.44
2022-09-17T15:28:41.100Z,98340.34
2022-09-17T15:30:24.594Z,98341.28
2022-09-17T15:31:56.850Z,98332.97
2022-09-17T15:33:29.937Z,98318.53
2022-09-17T15:35:14.943Z,98297.31
2022-09-17T15:37:26.231Z,98283.56
2022-09-17T15:38:59.548Z,98285.50
2022-09-17T15:40:35.550Z,98292.16
2022-09-17T15:42:18.943Z,98274.41
2022-09-17T15:43:51.584Z,98274.81
2022-09-17T15:45:37.730Z,98274.41
2022-09-17T15:47:35.841Z,98276.06
2022-09-17T15:49:38.722Z,98281.34
2022-09-17T15:51:32.968Z,98285.50
2022-09-17T15:53:10.745Z,98284.38
2022-09-17T15:54:42.964Z,98288.28
2022-09-17T15:56:18.119Z,98294.94
2022-09-17T15:57:50.498Z,98288.28
2022-09-17T15:59:32.401Z,98294.78
2022-09-17T16:01:17.263Z,98290.47
2022-09-17T16:02:49.681Z,98293.84
2022-09-17T16:04:37.943Z,98309.38
2022-09-17T16:06:18.841Z,98318.41
2022-09-17T16:07:51.475Z,98320.66
2022-09-17T16:09:40.835Z,98321.06
2022-09-17T16:11:16.560Z,98316.34
2022-09-17T16:12:50.210Z,98316.59
2022-09-17T16:14:22.593Z,98311.88
2022-09-17T16:15:55.214Z,98318.38
2022-09-17T16:17:38.504Z,98316.16
2022-09-17T16:19:11.395Z,98301.81
2022-09-17T16:20:44.033Z,98297.97
2022-09-17T16:22:16.255Z,98282.13
2022-09-17T16:23:48.486Z,98278.91
2022-09-17T16:25:24.949Z,98279.28
2022-09-17T16:26:57.448Z,98275.00
2022-09-17T16:28:30.022Z,98278.34
2022-09-17T16:30:09.451Z,98269.97
2022-09-17T16:31:41.796Z,98265.81
2022-09-17T16:33:15.720Z,98258.28
2022-09-17T16:34:48.019Z,98264.56
2022-09-17T16:36:20.371Z,98265.09
2022-09-17T16:37:54.762Z,98265.94
2022-09-17T16:39:27.106Z,98278.72
2022-09-17T16:40:59.496Z,98271.25
2022-09-17T16:42:32.733Z,98271.38
2022-09-17T16:44:05.066Z,98269.72
2022-09-17T16:45:37.415Z,98267.13
2022-09-17T16:47:09.710Z,98267.66
2022-09-17T16:48:44.036Z,98269.09
2022-09-17T16:50:18.130Z,98271.16
2022-09-17T16:51:50.884Z,98282.16
2022-09-17T16:53:23.175Z,98286.06
2022-09-17T16:54:55.496Z,98281.34
2022-09-17T16:56:27.828Z,98282.47
2022-09-17T16:58:00.218Z,98282.88
2022-09-17T16:59:32.510Z,98287.47
2022-09-17T17:01:12.738Z,98287.47
2022-09-17T17:02:46.112Z,98284.28
2022-09-17T17:04:18.503Z,98273.88
2022-09-17T17:05:50.877Z,98272.88
2022-09-17T17:07:23.099Z,98268.59
2022-09-17T17:09:01.486Z,98260.56
2022-09-17T17:10:34.210Z,98251.41
2022-09-17T17:12:09.737Z,98248.06
2022-09-17T17:13:45.402Z,98250.03
2022-09-17T17:15:17.773Z,98257.81
2022-09-17T17:16:50.125Z,98265.84
2022-09-17T17:18:22.827Z,98264.06
2022-09-17T17:19:55.393Z,98257.25
2022-09-17T17:21:27.716Z,98245.19
2022-09-17T17:22:59.965Z,98242.53
2022-09-17T17:24:32.188Z,98229.50
2022-09-17T17:26:04.592Z,98225.34
2022-09-17T17:27:38.817Z,98230.63
2022-09-17T17:29:13.875Z,98240.47
2022-09-17T17:30:48.226Z,98261.16
2022-09-17T17:32:20.445Z,98264.44
2022-09-17T17:33:52.747Z,98270.56
2022-09-17T17:35:25.292Z,98264.47
2022-09-17T17:36:58.297Z,98272.75
2022-09-17T17:38:30.780Z,98274.69
2022-09-17T17:40:07.418Z,98265.38
2022-09-17T17:41:40.072Z,98276.22
2022-09-17T17:43:13.082Z,98286.75
2022-09-17T17:44:45.513Z,98292.97
2022-09-17T17:46:17.984Z,98294.91
2022-09-17T17:47:50.680Z,98291.44
2022-09-17T17:49:22.999Z,98292.44
2022-09-17T17:50:56.889Z,98294.09
2022-09-17T17:52:29.411Z,98287.16
2022-09-17T17:54:01.761Z,98287.00
2022-09-17T17:55:34.084Z,98298.81
2022-09-17T17:57:06.381Z,98300.88
2022-09-17T17:58:39.286Z,98300.06
2022-09-17T18:00:12.968Z,98291.16
2022-09-17T18:01:45.429Z,98290.34
2022-09-17T18:03:17.853Z,98292.16
2022-09-17T18:04:50.232Z,98308.66
2022-09-17T18:06:22.533Z,98311.97
2022-09-17T18:07:54.946Z,98319.88
2022-09-17T18:09:27.198Z,98314.88
2022-09-17T18:11:04.641Z,98324.56
2022-09-17T18:12:37.572Z,98323.59
2022-09-17T18:14:15.832Z,98310.31
2022-09-17T18:15:56.471Z,98304.22
2022-09-17T18:17:29.479Z,98303.91
2022-09-17T18:19:02.818Z,98302.25
2022-09-17T18:20:35.245Z,98316.50
2022-09-17T18:22:07.697Z,98316.91
2022-09-17T18:23:41.779Z,98310.97
2022-09-17T18:25:14.066Z,98314.66
2022-09-17T18:26:47.591Z,98325.06
2022-09-17T18:28:20.002Z,98325.06
2022-09-17T18:29:54.929Z,98322.56
2022-09-17T18:31:27.497Z,98317.19
2022-09-17T18:32:59.901Z,98319.69
2022-09-17T18:34:32.700Z,98314.66
2022-09-17T18:36:06.798Z,98310.97
2022-09-17T18:37:39.009Z,98304.00
2022-09-17T18:41:11.667Z,98293.47
2022-09-17T18:42:44.098Z,98283.22
2022-09-17T18:44:16.750Z,98278.09
2022-09-17T18:45:58.717Z,98284.06
2022-09-17T18:47:31.042Z,98282.66
2022-09-17T18:50:36.569Z,98271.69
2022-09-17T18:52:08.879Z,98275.41
2022-09-17T18:53:41.348Z,98263.94
2022-09-17T18:55:13.730Z,98250.91
2022-09-17T18:56:46.092Z,98248.41
2022-09-17T18:58:18.367Z,98251.03
2022-09-17T18:59:50.648Z,98253.94
2022-09-17T19:01:25.202Z,98251.88
2022-09-17T19:02:57.658Z,98254.06
2022-09-17T19:04:30.076Z,98258.88
2022-09-17T19:06:07.835Z,98268.44
2022-09-17T19:07:44.557Z,98268.44
2022-09-17T19:09:17.055Z,98278.53
2022-09-17T19:10:53.273Z,98276.44
2022-09-17T19:12:25.669Z,98274.22
2022-09-17T19:13:58.206Z,98280.31
2022-09-17T19:15:31.248Z,98285.59
2022-09-17T19:17:03.593Z,98278.09
2022-09-17T19:20:15.371Z,98258.38
2022-09-17T19:21:50.655Z,98264.75
2022-09-17T19:23:22.939Z,98271.41
2022-09-17T19:24:55.265Z,98273.34
2022-09-17T19:26:28.251Z,98267.38
2022-09-17T19:28:00.753Z,98268.19
2022-09-17T19:29:33.085Z,98261.13
2022-09-17T19:31:10.554Z,98262.81
2022-09-17T19:32:46.568Z,98254.63
2022-09-17T19:34:18.820Z,98260.19
2022-09-17T19:35:51.704Z,98256.84
2022-09-17T19:37:23.975Z,98249.78
2022-09-17T19:38:59.491Z,98246.31
2022-09-17T19:40:31.869Z,98247.97
2022-09-17T19:42:04.414Z,98240.38
2022-09-17T19:43:37.397Z,98247.56
2022-09-17T19:45:10.140Z,98241.59
2022-09-17T19:46:42.605Z,98249.72
2022-09-17T19:48:14.891Z,98246.53
2022-09-17T19:49:49.289Z,98243.06
2022-09-17T19:51:23.335Z,98239.72
2022-09-17T19:54:28.585Z,98221.59
2022-09-17T19:56:01.477Z,98234.47
2022-09-17T19:57:33.711Z,98230.72
2022-09-17T19:59:06.114Z,98242.53
2022-09-17T20:00:39.357Z,98235.09
2022-09-17T20:02:14.585Z,98239.56